Portada
METAR-TAF:

METAR-TAF

Aeropuertos :

Vanua Lava, Vanuatu

latitud: 13-51-06S, longitud: 167-32-13E, altitud: 2 m

Observación

El informe se hizo hace 1 hora y 12 minutos, a las 15:00 UTC
Viento 4 kt del este-sureste
Temperatura 28°C
Humedad 84%
Presión 1014 hPa
Visibilidad 10 km o más
Nubes dispersas a una altura de 2000 ft
Cielo nuboso a una altura de 4000 ft

METAR: NVSC 271500Z 12004KT 9999 SCT020 BKN040 28/25 Q1014

Hora: 03:12 (16:12 UTC)

Pronóstico

El informe se hizo hace 6 horas y 12 minutos, a las 10:00 UTC
Pronóstico válido del 27 a las 12 UTC al 28 a las 12 UTC
Viento 8 kt del este-sureste
Visibilidad: 9000 m
Nubes dispersas a una altura de 1800 ft
Cielo nuboso a una altura de 4000 ft
Escasas nubes a una altura de 1200 ft
Cielo nuboso a una altura de 1800 ft
Cielo cubierto a una altura de 4000 ft
chaparrones de lluvia

TAF: NVSC 271000Z 2712/2812 12008KT 9999 SCT018 BKN040 INTER 2712/2718 9000 SHRA FEW012 BKN018 OVC040

Observaciones y pronósticos meteorológicos de más de 4000 aeropuertos (mensajes METAR y TAF).

Los puntos amarillos y rojos representan las estaciones disponibles.

Ponga el ratón en el punto deseado para ver el nombre de la estación.

Haga clic para ver las observaciones y los pronósticos meteorológicos.

Para cambiar el mapa : haga clic en los botones verdes con una cruz de color negro para hacer un zoom, en el botón verde con un guión para alejar o en las flechas verdes para mapas adyacentes.


METAR-TAF: